sensor_id;sensor_type;location;lat;lon;timestamp;temperature;humidity
33139;DHT22;19501;50.948;5.316;2023-02-26T00:01:18;1.10;99.90
33139;DHT22;19501;50.948;5.316;2023-02-26T00:03:48;1.10;99.90
33139;DHT22;19501;50.948;5.316;2023-02-26T00:06:14;1.10;99.90
33139;DHT22;19501;50.948;5.316;2023-02-26T00:08:39;1.00;99.90
33139;DHT22;19501;50.948;5.316;2023-02-26T00:11:07;1.00;99.90
33139;DHT22;19501;50.948;5.316;2023-02-26T00:13:34;1.00;99.90
33139;DHT22;19501;50.948;5.316;2023-02-26T00:16:00;1.00;99.90
33139;DHT22;19501;50.948;5.316;2023-02-26T00:18:27;0.90;99.90
33139;DHT22;19501;50.948;5.316;2023-02-26T00:20:55;0.80;99.90
33139;DHT22;19501;50.948;5.316;2023-02-26T00:23:21;0.80;99.90
33139;DHT22;19501;50.948;5.316;2023-02-26T00:25:48;0.70;99.90
33139;DHT22;19501;50.948;5.316;2023-02-26T00:28:14;0.60;99.90
33139;DHT22;19501;50.948;5.316;2023-02-26T00:30:42;0.60;99.90
33139;DHT22;19501;50.948;5.316;2023-02-26T00:33:08;0.50;99.90
33139;DHT22;19501;50.948;5.316;2023-02-26T00:35:34;0.50;99.90
33139;DHT22;19501;50.948;5.316;2023-02-26T00:38:09;0.50;99.90
33139;DHT22;19501;50.948;5.316;2023-02-26T00:40:42;0.50;99.90
33139;DHT22;19501;50.948;5.316;2023-02-26T00:43:17;0.40;99.90
33139;DHT22;19501;50.948;5.316;2023-02-26T00:53:43;0.40;99.90
33139;DHT22;19501;50.948;5.316;2023-02-26T00:56:12;0.40;99.90
33139;DHT22;19501;50.948;5.316;2023-02-26T00:58:41;0.50;99.90
33139;DHT22;19501;50.948;5.316;2023-02-26T01:01:07;0.40;99.90
33139;DHT22;19501;50.948;5.316;2023-02-26T01:03:32;0.40;99.90
33139;DHT22;19501;50.948;5.316;2023-02-26T01:05:58;0.40;99.90
33139;DHT22;19501;50.948;5.316;2023-02-26T01:08:36;0.50;99.90
33139;DHT22;19501;50.948;5.316;2023-02-26T01:11:06;0.40;99.90
33139;DHT22;19501;50.948;5.316;2023-02-26T01:13:31;0.50;99.90
33139;DHT22;19501;50.948;5.316;2023-02-26T01:16:11;0.40;99.90
33139;DHT22;19501;50.948;5.316;2023-02-26T01:18:43;0.60;99.90
33139;DHT22;19501;50.948;5.316;2023-02-26T01:21:34;0.40;99.90
33139;DHT22;19501;50.948;5.316;2023-02-26T01:24:05;0.20;99.90
33139;DHT22;19501;50.948;5.316;2023-02-26T01:26:33;0.20;99.90
33139;DHT22;19501;50.948;5.316;2023-02-26T01:28:59;0.20;99.90
33139;DHT22;19501;50.948;5.316;2023-02-26T01:31:52;0.20;99.90
33139;DHT22;19501;50.948;5.316;2023-02-26T01:34:24;0.30;99.90
33139;DHT22;19501;50.948;5.316;2023-02-26T01:36:59;0.30;99.90
33139;DHT22;19501;50.948;5.316;2023-02-26T01:42:35;0.40;99.90
33139;DHT22;19501;50.948;5.316;2023-02-26T01:45:10;0.40;99.90
33139;DHT22;19501;50.948;5.316;2023-02-26T01:47:48;0.40;99.90
33139;DHT22;19501;50.948;5.316;2023-02-26T01:50:21;0.40;99.90
33139;DHT22;19501;50.948;5.316;2023-02-26T01:55:19;0.40;99.90
33139;DHT22;19501;50.948;5.316;2023-02-26T01:57:45;0.50;99.90
33139;DHT22;19501;50.948;5.316;2023-02-26T02:00:14;0.50;99.90
33139;DHT22;19501;50.948;5.316;2023-02-26T02:02:43;0.60;99.90
33139;DHT22;19501;50.948;5.316;2023-02-26T02:05:17;0.60;99.90
33139;DHT22;19501;50.948;5.316;2023-02-26T02:07:46;0.60;99.90
33139;DHT22;19501;50.948;5.316;2023-02-26T02:10:11;0.60;99.90
33139;DHT22;19501;50.948;5.316;2023-02-26T02:12:50;0.60;99.90
33139;DHT22;19501;50.948;5.316;2023-02-26T02:15:30;0.70;99.90
33139;DHT22;19501;50.948;5.316;2023-02-26T02:18:13;0.80;99.90
33139;DHT22;19501;50.948;5.316;2023-02-26T02:23:25;0.90;99.90
33139;DHT22;19501;50.948;5.316;2023-02-26T02:29:14;0.80;99.90
33139;DHT22;19501;50.948;5.316;2023-02-26T02:31:57;0.70;99.90
33139;DHT22;19501;50.948;5.316;2023-02-26T02:37:49;0.70;99.90
33139;DHT22;19501;50.948;5.316;2023-02-26T02:40:23;0.60;99.90
33139;DHT22;19501;50.948;5.316;2023-02-26T02:43:15;0.70;99.90
33139;DHT22;19501;50.948;5.316;2023-02-26T02:45:49;0.80;99.90
33139;DHT22;19501;50.948;5.316;2023-02-26T02:48:31;0.90;99.90
33139;DHT22;19501;50.948;5.316;2023-02-26T02:51:13;0.80;99.90
33139;DHT22;19501;50.948;5.316;2023-02-26T02:56:33;0.80;99.90
33139;DHT22;19501;50.948;5.316;2023-02-26T02:59:21;0.80;99.90
33139;DHT22;19501;50.948;5.316;2023-02-26T03:01:51;0.80;99.90
33139;DHT22;19501;50.948;5.316;2023-02-26T03:04:18;0.80;99.90
33139;DHT22;19501;50.948;5.316;2023-02-26T03:06:44;0.60;99.90
33139;DHT22;19501;50.948;5.316;2023-02-26T03:09:14;0.60;99.90
33139;DHT22;19501;50.948;5.316;2023-02-26T03:11:40;0.60;99.90
33139;DHT22;19501;50.948;5.316;2023-02-26T03:14:07;0.70;99.90
33139;DHT22;19501;50.948;5.316;2023-02-26T03:25:06;0.60;99.90
33139;DHT22;19501;50.948;5.316;2023-02-26T03:28:14;0.50;99.90
33139;DHT22;19501;50.948;5.316;2023-02-26T03:38:58;0.40;99.90
33139;DHT22;19501;50.948;5.316;2023-02-26T03:41:37;0.40;99.90
33139;DHT22;19501;50.948;5.316;2023-02-26T03:44:18;0.40;99.90
33139;DHT22;19501;50.948;5.316;2023-02-26T03:46:50;0.50;99.90
33139;DHT22;19501;50.948;5.316;2023-02-26T03:49:25;0.50;99.90
33139;DHT22;19501;50.948;5.316;2023-02-26T03:51:53;0.50;99.90
33139;DHT22;19501;50.948;5.316;2023-02-26T03:54:36;0.60;99.90
33139;DHT22;19501;50.948;5.316;2023-02-26T03:57:02;0.60;99.90
33139;DHT22;19501;50.948;5.316;2023-02-26T03:59:28;0.60;99.90
33139;DHT22;19501;50.948;5.316;2023-02-26T04:02:02;0.50;99.90
33139;DHT22;19501;50.948;5.316;2023-02-26T04:04:38;0.30;99.90
33139;DHT22;19501;50.948;5.316;2023-02-26T04:07:10;0.40;99.90
33139;DHT22;19501;50.948;5.316;2023-02-26T04:09:40;0.40;99.90
33139;DHT22;19501;50.948;5.316;2023-02-26T04:12:06;0.30;99.90
33139;DHT22;19501;50.948;5.316;2023-02-26T04:14:32;0.20;99.90
33139;DHT22;19501;50.948;5.316;2023-02-26T04:16:57;0.20;99.90
33139;DHT22;19501;50.948;5.316;2023-02-26T04:19:23;0.20;99.90
33139;DHT22;19501;50.948;5.316;2023-02-26T04:21:51;0.20;99.90
33139;DHT22;19501;50.948;5.316;2023-02-26T04:24:17;0.30;99.90
33139;DHT22;19501;50.948;5.316;2023-02-26T04:26:42;0.30;99.90
33139;DHT22;19501;50.948;5.316;2023-02-26T04:29:10;0.20;99.90
33139;DHT22;19501;50.948;5.316;2023-02-26T04:31:36;0.10;99.90
33139;DHT22;19501;50.948;5.316;2023-02-26T04:34:02;0.30;99.90
33139;DHT22;19501;50.948;5.316;2023-02-26T04:36:27;0.30;99.90
33139;DHT22;19501;50.948;5.316;2023-02-26T04:38:53;0.30;99.90
33139;DHT22;19501;50.948;5.316;2023-02-26T04:41:19;0.30;99.90
33139;DHT22;19501;50.948;5.316;2023-02-26T04:43:45;0.30;99.90
33139;DHT22;19501;50.948;5.316;2023-02-26T04:46:10;0.30;99.90
33139;DHT22;19501;50.948;5.316;2023-02-26T04:48:36;0.20;99.90
33139;DHT22;19501;50.948;5.316;2023-02-26T04:51:02;0.10;99.90
33139;DHT22;19501;50.948;5.316;2023-02-26T04:53:27;0.10;99.90
33139;DHT22;19501;50.948;5.316;2023-02-26T04:55:53;0.10;99.90
33139;DHT22;19501;50.948;5.316;2023-02-26T04:58:19;0.20;99.90
33139;DHT22;19501;50.948;5.316;2023-02-26T05:00:51;0.10;99.90
33139;DHT22;19501;50.948;5.316;2023-02-26T05:03:19;0.20;99.90
33139;DHT22;19501;50.948;5.316;2023-02-26T05:05:45;0.20;99.90
33139;DHT22;19501;50.948;5.316;2023-02-26T05:08:11;0.20;99.90
33139;DHT22;19501;50.948;5.316;2023-02-26T05:10:37;0.20;99.90
33139;DHT22;19501;50.948;5.316;2023-02-26T05:13:02;0.00;99.90
33139;DHT22;19501;50.948;5.316;2023-02-26T05:15:28;0.00;99.90
33139;DHT22;19501;50.948;5.316;2023-02-26T05:17:54;-0.10;99.90
33139;DHT22;19501;50.948;5.316;2023-02-26T05:20:20;-0.10;99.90
33139;DHT22;19501;50.948;5.316;2023-02-26T05:22:48;0.00;99.90
33139;DHT22;19501;50.948;5.316;2023-02-26T05:25:13;0.00;99.90
33139;DHT22;19501;50.948;5.316;2023-02-26T05:27:40;0.00;99.90
33139;DHT22;19501;50.948;5.316;2023-02-26T05:30:10;-0.10;99.90
33139;DHT22;19501;50.948;5.316;2023-02-26T05:32:37;-0.10;99.90
33139;DHT22;19501;50.948;5.316;2023-02-26T05:35:03;-0.10;99.90
33139;DHT22;19501;50.948;5.316;2023-02-26T05:37:29;-0.10;99.90
33139;DHT22;19501;50.948;5.316;2023-02-26T05:39:54;-0.20;99.90
33139;DHT22;19501;50.948;5.316;2023-02-26T05:42:20;-0.10;99.90
33139;DHT22;19501;50.948;5.316;2023-02-26T05:44:46;-0.10;99.90
33139;DHT22;19501;50.948;5.316;2023-02-26T05:47:11;-0.20;99.90
33139;DHT22;19501;50.948;5.316;2023-02-26T05:49:37;-0.10;99.90
33139;DHT22;19501;50.948;5.316;2023-02-26T05:52:03;-0.10;99.90
33139;DHT22;19501;50.948;5.316;2023-02-26T05:54:28;-0.10;99.90
33139;DHT22;19501;50.948;5.316;2023-02-26T05:56:54;-0.20;99.90
33139;DHT22;19501;50.948;5.316;2023-02-26T05:59:20;-0.30;99.90
33139;DHT22;19501;50.948;5.316;2023-02-26T06:01:46;-0.30;99.90
33139;DHT22;19501;50.948;5.316;2023-02-26T06:04:12;-0.30;99.90
33139;DHT22;19501;50.948;5.316;2023-02-26T06:06:37;-0.20;99.90
33139;DHT22;19501;50.948;5.316;2023-02-26T06:09:03;-0.10;99.90
33139;DHT22;19501;50.948;5.316;2023-02-26T06:11:30;-0.10;99.90
33139;DHT22;19501;50.948;5.316;2023-02-26T06:13:56;0.00;99.90
33139;DHT22;19501;50.948;5.316;2023-02-26T06:16:22;-0.20;99.90
33139;DHT22;19501;50.948;5.316;2023-02-26T06:18:50;-0.30;99.90
33139;DHT22;19501;50.948;5.316;2023-02-26T06:21:16;-0.30;99.90
33139;DHT22;19501;50.948;5.316;2023-02-26T06:23:42;-0.20;99.90
33139;DHT22;19501;50.948;5.316;2023-02-26T06:26:08;-0.20;99.90
33139;DHT22;19501;50.948;5.316;2023-02-26T06:28:34;-0.20;99.90
33139;DHT22;19501;50.948;5.316;2023-02-26T06:31:00;-0.20;99.90
33139;DHT22;19501;50.948;5.316;2023-02-26T06:33:26;-0.20;99.90
33139;DHT22;19501;50.948;5.316;2023-02-26T06:35:52;-0.30;99.90
33139;DHT22;19501;50.948;5.316;2023-02-26T06:38:17;-0.20;99.90
33139;DHT22;19501;50.948;5.316;2023-02-26T06:40:44;-0.10;99.90
33139;DHT22;19501;50.948;5.316;2023-02-26T06:43:10;-0.20;99.90
33139;DHT22;19501;50.948;5.316;2023-02-26T06:45:36;-0.10;99.90
33139;DHT22;19501;50.948;5.316;2023-02-26T06:48:01;-0.10;99.90
33139;DHT22;19501;50.948;5.316;2023-02-26T06:50:27;-0.20;99.90
33139;DHT22;19501;50.948;5.316;2023-02-26T06:52:53;-0.20;99.90
33139;DHT22;19501;50.948;5.316;2023-02-26T06:55:18;-0.20;99.90
33139;DHT22;19501;50.948;5.316;2023-02-26T06:57:46;-0.10;99.90
33139;DHT22;19501;50.948;5.316;2023-02-26T07:00:12;-0.10;99.90
33139;DHT22;19501;50.948;5.316;2023-02-26T07:02:38;-0.10;99.90
33139;DHT22;19501;50.948;5.316;2023-02-26T07:05:04;-0.20;99.90
33139;DHT22;19501;50.948;5.316;2023-02-26T07:07:30;-0.20;99.90
33139;DHT22;19501;50.948;5.316;2023-02-26T07:09:56;-0.10;99.90
33139;DHT22;19501;50.948;5.316;2023-02-26T07:12:21;0.00;99.90
33139;DHT22;19501;50.948;5.316;2023-02-26T07:14:47;0.10;99.90
33139;DHT22;19501;50.948;5.316;2023-02-26T07:17:13;0.00;99.90
33139;DHT22;19501;50.948;5.316;2023-02-26T07:19:49;0.10;99.90
33139;DHT22;19501;50.948;5.316;2023-02-26T07:22:17;0.20;99.90
33139;DHT22;19501;50.948;5.316;2023-02-26T07:24:43;0.20;99.90
33139;DHT22;19501;50.948;5.316;2023-02-26T07:27:10;0.20;99.90
33139;DHT22;19501;50.948;5.316;2023-02-26T07:29:35;0.30;99.90
33139;DHT22;19501;50.948;5.316;2023-02-26T07:32:02;0.40;99.90
33139;DHT22;19501;50.948;5.316;2023-02-26T07:34:27;0.30;99.90
33139;DHT22;19501;50.948;5.316;2023-02-26T07:36:53;0.30;99.90
33139;DHT22;19501;50.948;5.316;2023-02-26T07:39:19;0.30;99.90
33139;DHT22;19501;50.948;5.316;2023-02-26T07:41:45;0.30;99.90
33139;DHT22;19501;50.948;5.316;2023-02-26T07:44:11;0.30;99.90
33139;DHT22;19501;50.948;5.316;2023-02-26T07:46:37;0.40;99.90
33139;DHT22;19501;50.948;5.316;2023-02-26T07:49:02;0.30;99.90
33139;DHT22;19501;50.948;5.316;2023-02-26T07:51:28;0.40;99.90
33139;DHT22;19501;50.948;5.316;2023-02-26T07:53:54;0.40;99.90
33139;DHT22;19501;50.948;5.316;2023-02-26T07:56:20;0.50;99.90
33139;DHT22;19501;50.948;5.316;2023-02-26T07:58:45;0.60;99.90
33139;DHT22;19501;50.948;5.316;2023-02-26T08:01:11;0.60;99.90
33139;DHT22;19501;50.948;5.316;2023-02-26T08:03:37;0.60;99.90
33139;DHT22;19501;50.948;5.316;2023-02-26T08:06:06;0.70;99.90
33139;DHT22;19501;50.948;5.316;2023-02-26T08:08:32;0.60;99.90
33139;DHT22;19501;50.948;5.316;2023-02-26T08:11:01;0.70;99.90
33139;DHT22;19501;50.948;5.316;2023-02-26T08:13:27;0.80;99.90
33139;DHT22;19501;50.948;5.316;2023-02-26T08:15:52;0.80;99.90
33139;DHT22;19501;50.948;5.316;2023-02-26T08:18:18;0.90;99.90
33139;DHT22;19501;50.948;5.316;2023-02-26T08:20:45;0.90;99.90
33139;DHT22;19501;50.948;5.316;2023-02-26T08:23:10;0.90;99.90
33139;DHT22;19501;50.948;5.316;2023-02-26T08:25:37;1.00;99.90
33139;DHT22;19501;50.948;5.316;2023-02-26T08:28:03;1.00;99.90
33139;DHT22;19501;50.948;5.316;2023-02-26T08:30:29;1.00;99.90
33139;DHT22;19501;50.948;5.316;2023-02-26T08:32:55;1.10;99.90
33139;DHT22;19501;50.948;5.316;2023-02-26T08:35:21;1.00;99.90
33139;DHT22;19501;50.948;5.316;2023-02-26T08:37:47;1.10;99.90
33139;DHT22;19501;50.948;5.316;2023-02-26T08:40:13;1.20;99.90
33139;DHT22;19501;50.948;5.316;2023-02-26T08:42:41;1.10;99.90
33139;DHT22;19501;50.948;5.316;2023-02-26T08:45:07;1.20;99.90
33139;DHT22;19501;50.948;5.316;2023-02-26T08:47:33;1.20;99.90
33139;DHT22;19501;50.948;5.316;2023-02-26T08:49:58;1.20;99.90
33139;DHT22;19501;50.948;5.316;2023-02-26T08:52:24;1.30;99.90
33139;DHT22;19501;50.948;5.316;2023-02-26T08:54:52;1.40;99.90
33139;DHT22;19501;50.948;5.316;2023-02-26T08:57:18;1.40;99.90
33139;DHT22;19501;50.948;5.316;2023-02-26T08:59:43;1.40;99.90
33139;DHT22;19501;50.948;5.316;2023-02-26T09:02:12;1.50;99.90
33139;DHT22;19501;50.948;5.316;2023-02-26T09:04:38;1.50;99.90
33139;DHT22;19501;50.948;5.316;2023-02-26T09:07:04;1.50;99.90
33139;DHT22;19501;50.948;5.316;2023-02-26T09:09:29;1.60;99.90
33139;DHT22;19501;50.948;5.316;2023-02-26T09:11:55;1.70;99.90
33139;DHT22;19501;50.948;5.316;2023-02-26T09:14:23;1.80;99.90
33139;DHT22;19501;50.948;5.316;2023-02-26T09:16:49;1.90;99.90
33139;DHT22;19501;50.948;5.316;2023-02-26T09:19:15;1.90;99.90
33139;DHT22;19501;50.948;5.316;2023-02-26T09:21:41;2.00;99.90
33139;DHT22;19501;50.948;5.316;2023-02-26T09:24:07;2.00;99.90
33139;DHT22;19501;50.948;5.316;2023-02-26T09:26:32;2.10;99.90
33139;DHT22;19501;50.948;5.316;2023-02-26T09:28:58;2.10;99.90
33139;DHT22;19501;50.948;5.316;2023-02-26T09:31:24;2.10;99.90
33139;DHT22;19501;50.948;5.316;2023-02-26T09:33:49;2.20;99.90
33139;DHT22;19501;50.948;5.316;2023-02-26T09:36:15;2.20;99.90
33139;DHT22;19501;50.948;5.316;2023-02-26T09:38:41;2.20;99.90
33139;DHT22;19501;50.948;5.316;2023-02-26T09:41:21;2.30;99.90
33139;DHT22;19501;50.948;5.316;2023-02-26T09:44:26;2.40;99.90
33139;DHT22;19501;50.948;5.316;2023-02-26T09:50:19;2.60;99.90
33139;DHT22;19501;50.948;5.316;2023-02-26T09:52:54;2.60;99.90
33139;DHT22;19501;50.948;5.316;2023-02-26T09:58:01;2.70;99.90
33139;DHT22;19501;50.948;5.316;2023-02-26T10:00:34;2.80;99.90
33139;DHT22;19501;50.948;5.316;2023-02-26T10:11:20;2.50;99.90
33139;DHT22;19501;50.948;5.316;2023-02-26T10:14:03;2.60;99.90
33139;DHT22;19501;50.948;5.316;2023-02-26T10:16:36;2.50;99.90
33139;DHT22;19501;50.948;5.316;2023-02-26T10:19:25;2.60;99.90
33139;DHT22;19501;50.948;5.316;2023-02-26T10:22:19;2.70;99.90
33139;DHT22;19501;50.948;5.316;2023-02-26T10:24:57;2.90;99.90
33139;DHT22;19501;50.948;5.316;2023-02-26T10:27:41;3.10;99.90
33139;DHT22;19501;50.948;5.316;2023-02-26T10:30:27;3.30;99.90
33139;DHT22;19501;50.948;5.316;2023-02-26T10:33:02;3.80;99.90
33139;DHT22;19501;50.948;5.316;2023-02-26T10:35:31;4.00;99.90
33139;DHT22;19501;50.948;5.316;2023-02-26T10:38:11;3.80;99.90
33139;DHT22;19501;50.948;5.316;2023-02-26T10:40:43;4.00;99.90
33139;DHT22;19501;50.948;5.316;2023-02-26T10:43:28;4.30;99.90
33139;DHT22;19501;50.948;5.316;2023-02-26T10:51:17;4.70;99.90
33139;DHT22;19501;50.948;5.316;2023-02-26T10:53:48;4.70;99.90
33139;DHT22;19501;50.948;5.316;2023-02-26T10:56:35;4.70;99.90
33139;DHT22;19501;50.948;5.316;2023-02-26T10:59:01;4.80;99.90
33139;DHT22;19501;50.948;5.316;2023-02-26T11:01:29;4.80;99.90
33139;DHT22;19501;50.948;5.316;2023-02-26T11:04:04;4.80;99.90
33139;DHT22;19501;50.948;5.316;2023-02-26T11:06:43;4.90;99.90
33139;DHT22;19501;50.948;5.316;2023-02-26T11:09:28;4.90;99.90
33139;DHT22;19501;50.948;5.316;2023-02-26T11:14:51;5.20;99.90
33139;DHT22;19501;50.948;5.316;2023-02-26T11:17:23;5.40;99.90
33139;DHT22;19501;50.948;5.316;2023-02-26T11:22:25;5.30;99.90
33139;DHT22;19501;50.948;5.316;2023-02-26T11:24:52;5.40;99.90
33139;DHT22;19501;50.948;5.316;2023-02-26T11:27:25;5.40;99.90
33139;DHT22;19501;50.948;5.316;2023-02-26T11:30:02;5.60;99.90
33139;DHT22;19501;50.948;5.316;2023-02-26T11:32:33;5.60;99.90
33139;DHT22;19501;50.948;5.316;2023-02-26T11:35:00;5.40;99.90
33139;DHT22;19501;50.948;5.316;2023-02-26T11:37:33;5.40;99.90
33139;DHT22;19501;50.948;5.316;2023-02-26T11:40:25;5.40;99.90
33139;DHT22;19501;50.948;5.316;2023-02-26T11:42:56;5.50;99.90
33139;DHT22;19501;50.948;5.316;2023-02-26T11:45:22;6.00;99.90
33139;DHT22;19501;50.948;5.316;2023-02-26T11:48:02;6.90;99.90
33139;DHT22;19501;50.948;5.316;2023-02-26T11:50:30;7.80;99.90
33139;DHT22;19501;50.948;5.316;2023-02-26T11:53:06;7.80;99.10
33139;DHT22;19501;50.948;5.316;2023-02-26T11:55:44;8.40;98.80
33139;DHT22;19501;50.948;5.316;2023-02-26T11:58:20;8.70;98.20
33139;DHT22;19501;50.948;5.316;2023-02-26T12:00:47;9.10;97.40
33139;DHT22;19501;50.948;5.316;2023-02-26T12:03:27;9.20;96.00
33139;DHT22;19501;50.948;5.316;2023-02-26T12:05:53;8.60;96.00
33139;DHT22;19501;50.948;5.316;2023-02-26T12:10:55;8.40;95.90
33139;DHT22;19501;50.948;5.316;2023-02-26T12:16:14;8.10;95.20
33139;DHT22;19501;50.948;5.316;2023-02-26T12:24:37;8.10;95.70
33139;DHT22;19501;50.948;5.316;2023-02-26T12:38:01;8.10;94.00
33139;DHT22;19501;50.948;5.316;2023-02-26T12:41:02;8.40;94.50
33139;DHT22;19501;50.948;5.316;2023-02-26T12:46:18;10.10;93.80
33139;DHT22;19501;50.948;5.316;2023-02-26T13:04:55;10.10;91.60
33139;DHT22;19501;50.948;5.316;2023-02-26T13:07:43;10.70;91.10
33139;DHT22;19501;50.948;5.316;2023-02-26T13:21:46;9.70;90.70
33139;DHT22;19501;50.948;5.316;2023-02-26T13:24:36;9.70;90.70
33139;DHT22;19501;50.948;5.316;2023-02-26T13:27:05;8.90;90.60
33139;DHT22;19501;50.948;5.316;2023-02-26T13:29:39;8.00;91.30
33139;DHT22;19501;50.948;5.316;2023-02-26T13:32:12;7.70;92.90
33139;DHT22;19501;50.948;5.316;2023-02-26T13:34:57;8.70;92.70
33139;DHT22;19501;50.948;5.316;2023-02-26T13:37:39;9.70;90.70
33139;DHT22;19501;50.948;5.316;2023-02-26T13:40:34;10.10;90.30
33139;DHT22;19501;50.948;5.316;2023-02-26T13:46:17;10.60;88.00
33139;DHT22;19501;50.948;5.316;2023-02-26T13:53:58;12.20;86.20
33139;DHT22;19501;50.948;5.316;2023-02-26T14:01:47;11.20;84.70
33139;DHT22;19501;50.948;5.316;2023-02-26T14:06:59;12.00;85.40
33139;DHT22;19501;50.948;5.316;2023-02-26T14:14:31;11.10;79.70
33139;DHT22;19501;50.948;5.316;2023-02-26T14:19:45;9.70;84.50
33139;DHT22;19501;50.948;5.316;2023-02-26T14:22:35;10.20;84.00
33139;DHT22;19501;50.948;5.316;2023-02-26T14:27:42;10.10;84.10
33139;DHT22;19501;50.948;5.316;2023-02-26T14:35:44;10.00;84.50
33139;DHT22;19501;50.948;5.316;2023-02-26T14:38:11;10.10;83.00
33139;DHT22;19501;50.948;5.316;2023-02-26T14:40:42;9.80;84.50
33139;DHT22;19501;50.948;5.316;2023-02-26T14:43:17;9.90;84.60
33139;DHT22;19501;50.948;5.316;2023-02-26T14:45:44;9.60;82.60
33139;DHT22;19501;50.948;5.316;2023-02-26T14:48:21;9.30;82.20
33139;DHT22;19501;50.948;5.316;2023-02-26T14:54:03;8.60;84.80
33139;DHT22;19501;50.948;5.316;2023-02-26T14:56:54;8.20;85.40
33139;DHT22;19501;50.948;5.316;2023-02-26T15:02:36;8.20;86.90
33139;DHT22;19501;50.948;5.316;2023-02-26T15:19:54;7.90;89.20
33139;DHT22;19501;50.948;5.316;2023-02-26T15:25:32;7.40;89.50
33139;DHT22;19501;50.948;5.316;2023-02-26T15:28:00;7.60;88.80
33139;DHT22;19501;50.948;5.316;2023-02-26T15:30:27;7.50;89.20
33139;DHT22;19501;50.948;5.316;2023-02-26T15:33:03;7.40;89.60
33139;DHT22;19501;50.948;5.316;2023-02-26T15:35:30;7.50;89.10
33139;DHT22;19501;50.948;5.316;2023-02-26T15:37:59;7.70;89.90
33139;DHT22;19501;50.948;5.316;2023-02-26T15:40:29;7.40;89.50
33139;DHT22;19501;50.948;5.316;2023-02-26T15:42:57;7.60;90.40
33139;DHT22;19501;50.948;5.316;2023-02-26T15:45:27;7.60;88.50
33139;DHT22;19501;50.948;5.316;2023-02-26T15:47:59;7.20;87.10
33139;DHT22;19501;50.948;5.316;2023-02-26T15:50:31;6.70;89.50
33139;DHT22;19501;50.948;5.316;2023-02-26T15:53:01;6.90;89.00
33139;DHT22;19501;50.948;5.316;2023-02-26T15:55:32;6.90;89.80
33139;DHT22;19501;50.948;5.316;2023-02-26T15:57:59;6.90;88.20
33139;DHT22;19501;50.948;5.316;2023-02-26T16:00:25;6.90;89.80
33139;DHT22;19501;50.948;5.316;2023-02-26T16:02:55;7.10;89.60
33139;DHT22;19501;50.948;5.316;2023-02-26T16:05:27;7.20;89.30
33139;DHT22;19501;50.948;5.316;2023-02-26T16:07:54;7.30;89.70
33139;DHT22;19501;50.948;5.316;2023-02-26T16:10:34;7.20;89.30
33139;DHT22;19501;50.948;5.316;2023-02-26T16:13:04;7.10;90.10
33139;DHT22;19501;50.948;5.316;2023-02-26T16:15:37;7.00;89.10
33139;DHT22;19501;50.948;5.316;2023-02-26T16:18:04;7.00;90.00
33139;DHT22;19501;50.948;5.316;2023-02-26T16:20:40;7.00;90.00
33139;DHT22;19501;50.948;5.316;2023-02-26T16:23:11;7.00;90.10
33139;DHT22;19501;50.948;5.316;2023-02-26T16:28:18;6.60;89.60
33139;DHT22;19501;50.948;5.316;2023-02-26T16:30:48;6.40;90.20
33139;DHT22;19501;50.948;5.316;2023-02-26T16:33:16;6.30;90.60
33139;DHT22;19501;50.948;5.316;2023-02-26T16:35:45;6.20;90.40
33139;DHT22;19501;50.948;5.316;2023-02-26T16:38:18;6.20;90.80
33139;DHT22;19501;50.948;5.316;2023-02-26T16:40:44;6.20;91.00
33139;DHT22;19501;50.948;5.316;2023-02-26T16:45:54;6.10;91.00
33139;DHT22;19501;50.948;5.316;2023-02-26T16:48:21;6.10;91.40
33139;DHT22;19501;50.948;5.316;2023-02-26T16:51:12;5.90;91.50
33139;DHT22;19501;50.948;5.316;2023-02-26T16:54:00;5.80;91.70
33139;DHT22;19501;50.948;5.316;2023-02-26T16:56:34;5.60;91.60
33139;DHT22;19501;50.948;5.316;2023-02-26T17:04:22;5.60;92.80
33139;DHT22;19501;50.948;5.316;2023-02-26T17:06:48;5.60;92.90
33139;DHT22;19501;50.948;5.316;2023-02-26T17:14:36;5.60;93.20
33139;DHT22;19501;50.948;5.316;2023-02-26T17:17:03;5.50;92.90
33139;DHT22;19501;50.948;5.316;2023-02-26T17:19:28;5.40;93.60
33139;DHT22;19501;50.948;5.316;2023-02-26T17:21:56;5.30;93.60
33139;DHT22;19501;50.948;5.316;2023-02-26T17:24:36;5.30;93.30
33139;DHT22;19501;50.948;5.316;2023-02-26T17:27:06;5.20;93.80
33139;DHT22;19501;50.948;5.316;2023-02-26T17:29:41;5.10;94.10
33139;DHT22;19501;50.948;5.316;2023-02-26T17:32:26;5.10;94.00
33139;DHT22;19501;50.948;5.316;2023-02-26T17:34:52;5.00;94.10
33139;DHT22;19501;50.948;5.316;2023-02-26T17:37:19;5.00;94.30
33139;DHT22;19501;50.948;5.316;2023-02-26T17:39:45;4.90;94.50
33139;DHT22;19501;50.948;5.316;2023-02-26T17:42:13;4.90;94.40
33139;DHT22;19501;50.948;5.316;2023-02-26T17:44:40;5.00;94.80
33139;DHT22;19501;50.948;5.316;2023-02-26T17:47:14;4.90;94.70
33139;DHT22;19501;50.948;5.316;2023-02-26T17:49:41;4.90;94.50
33139;DHT22;19501;50.948;5.316;2023-02-26T17:52:06;5.10;94.40
33139;DHT22;19501;50.948;5.316;2023-02-26T17:54:32;5.10;94.60
33139;DHT22;19501;50.948;5.316;2023-02-26T17:56:58;5.00;94.60
33139;DHT22;19501;50.948;5.316;2023-02-26T17:59:24;5.00;94.40
33139;DHT22;19501;50.948;5.316;2023-02-26T18:01:50;5.00;94.70
33139;DHT22;19501;50.948;5.316;2023-02-26T18:04:15;4.90;94.70
33139;DHT22;19501;50.948;5.316;2023-02-26T18:06:41;4.80;95.00
33139;DHT22;19501;50.948;5.316;2023-02-26T18:09:10;4.90;94.70
33139;DHT22;19501;50.948;5.316;2023-02-26T18:11:36;4.90;94.60
33139;DHT22;19501;50.948;5.316;2023-02-26T18:14:03;4.80;95.00
33139;DHT22;19501;50.948;5.316;2023-02-26T18:16:41;4.70;94.90
33139;DHT22;19501;50.948;5.316;2023-02-26T18:19:07;4.70;95.20
33139;DHT22;19501;50.948;5.316;2023-02-26T18:21:33;4.60;95.30
33139;DHT22;19501;50.948;5.316;2023-02-26T18:23:59;4.60;95.50
33139;DHT22;19501;50.948;5.316;2023-02-26T18:26:30;4.50;95.50
33139;DHT22;19501;50.948;5.316;2023-02-26T18:28:56;4.50;95.60
33139;DHT22;19501;50.948;5.316;2023-02-26T18:31:23;4.50;95.90
33139;DHT22;19501;50.948;5.316;2023-02-26T18:33:57;4.40;96.10
33139;DHT22;19501;50.948;5.316;2023-02-26T18:36:31;4.40;96.30
33139;DHT22;19501;50.948;5.316;2023-02-26T18:39:12;4.40;96.90
33139;DHT22;19501;50.948;5.316;2023-02-26T18:41:40;4.00;97.50
33139;DHT22;19501;50.948;5.316;2023-02-26T18:44:06;3.90;97.80
33139;DHT22;19501;50.948;5.316;2023-02-26T18:46:31;3.70;97.90
33139;DHT22;19501;50.948;5.316;2023-02-26T18:49:05;3.50;98.20
33139;DHT22;19501;50.948;5.316;2023-02-26T18:51:31;3.30;98.30
33139;DHT22;19501;50.948;5.316;2023-02-26T18:53:57;3.20;98.60
33139;DHT22;19501;50.948;5.316;2023-02-26T18:56:26;3.20;99.00
33139;DHT22;19501;50.948;5.316;2023-02-26T18:58:51;3.30;98.90
33139;DHT22;19501;50.948;5.316;2023-02-26T19:01:17;3.20;99.00
33139;DHT22;19501;50.948;5.316;2023-02-26T19:03:45;3.10;98.90
33139;DHT22;19501;50.948;5.316;2023-02-26T19:06:10;3.00;99.40
33139;DHT22;19501;50.948;5.316;2023-02-26T19:08:36;2.80;99.70
33139;DHT22;19501;50.948;5.316;2023-02-26T19:11:02;2.90;99.90
33139;DHT22;19501;50.948;5.316;2023-02-26T19:13:28;2.90;99.90
33139;DHT22;19501;50.948;5.316;2023-02-26T19:15:53;2.60;99.90